sensor_id;sensor_type;location;lat;lon;timestamp;P1;durP1;ratioP1;P2;durP2;ratioP2
9716;SDS011;4897;43.570;27.832;2022-09-03T00:01:22;6.25;;;2.85;;
9716;SDS011;4897;43.570;27.832;2022-09-03T00:03:54;5.47;;;3.00;;
9716;SDS011;4897;43.570;27.832;2022-09-03T00:06:29;5.93;;;3.20;;
9716;SDS011;4897;43.570;27.832;2022-09-03T00:09:02;6.03;;;3.10;;
9716;SDS011;4897;43.570;27.832;2022-09-03T00:11:45;6.93;;;3.47;;
9716;SDS011;4897;43.570;27.832;2022-09-03T00:14:18;7.38;;;3.22;;
9716;SDS011;4897;43.570;27.832;2022-09-03T00:16:49;4.22;;;3.25;;
9716;SDS011;4897;43.570;27.832;2022-09-03T00:19:20;3.95;;;3.22;;
9716;SDS011;4897;43.570;27.832;2022-09-03T00:21:52;7.03;;;3.72;;
9716;SDS011;4897;43.570;27.832;2022-09-03T00:24:24;6.35;;;3.58;;
9716;SDS011;4897;43.570;27.832;2022-09-03T00:26:58;9.27;;;4.05;;
9716;SDS011;4897;43.570;27.832;2022-09-03T00:29:30;6.03;;;3.95;;
9716;SDS011;4897;43.570;27.832;2022-09-03T00:32:01;5.35;;;3.60;;
9716;SDS011;4897;43.570;27.832;2022-09-03T00:34:34;8.65;;;4.22;;
9716;SDS011;4897;43.570;27.832;2022-09-03T00:37:06;8.63;;;4.38;;
9716;SDS011;4897;43.570;27.832;2022-09-03T00:39:35;5.78;;;3.80;;
9716;SDS011;4897;43.570;27.832;2022-09-03T00:42:16;6.85;;;3.58;;
9716;SDS011;4897;43.570;27.832;2022-09-03T00:45:09;5.38;;;3.63;;
9716;SDS011;4897;43.570;27.832;2022-09-03T00:47:47;9.18;;;3.97;;
9716;SDS011;4897;43.570;27.832;2022-09-03T00:50:26;6.22;;;3.72;;
9716;SDS011;4897;43.570;27.832;2022-09-03T00:53:03;6.15;;;3.63;;
9716;SDS011;4897;43.570;27.832;2022-09-03T00:55:41;6.85;;;3.42;;
9716;SDS011;4897;43.570;27.832;2022-09-03T00:58:22;6.38;;;3.92;;
9716;SDS011;4897;43.570;27.832;2022-09-03T01:01:07;13.00;;;4.03;;
9716;SDS011;4897;43.570;27.832;2022-09-03T01:03:41;6.20;;;3.90;;
9716;SDS011;4897;43.570;27.832;2022-09-03T01:06:21;6.20;;;4.00;;
9716;SDS011;4897;43.570;27.832;2022-09-03T01:09:00;6.28;;;3.90;;
9716;SDS011;4897;43.570;27.832;2022-09-03T01:11:40;9.80;;;4.20;;
9716;SDS011;4897;43.570;27.832;2022-09-03T01:14:21;6.30;;;3.40;;
9716;SDS011;4897;43.570;27.832;2022-09-03T01:17:01;7.28;;;3.58;;
9716;SDS011;4897;43.570;27.832;2022-09-03T01:20:00;5.85;;;4.28;;
9716;SDS011;4897;43.570;27.832;2022-09-03T01:22:53;7.55;;;3.42;;
9716;SDS011;4897;43.570;27.832;2022-09-03T01:25:45;8.80;;;3.67;;
9716;SDS011;4897;43.570;27.832;2022-09-03T01:28:28;13.77;;;3.78;;
9716;SDS011;4897;43.570;27.832;2022-09-03T01:31:10;9.10;;;3.90;;
9716;SDS011;4897;43.570;27.832;2022-09-03T01:33:52;4.72;;;3.30;;
9716;SDS011;4897;43.570;27.832;2022-09-03T01:36:29;10.27;;;3.50;;
9716;SDS011;4897;43.570;27.832;2022-09-03T01:39:04;8.75;;;3.72;;
9716;SDS011;4897;43.570;27.832;2022-09-03T01:41:36;6.32;;;4.25;;
9716;SDS011;4897;43.570;27.832;2022-09-03T01:44:34;10.20;;;3.50;;
9716;SDS011;4897;43.570;27.832;2022-09-03T01:47:14;5.78;;;3.60;;
9716;SDS011;4897;43.570;27.832;2022-09-03T01:50:02;7.90;;;4.20;;
9716;SDS011;4897;43.570;27.832;2022-09-03T01:52:36;5.93;;;3.90;;
9716;SDS011;4897;43.570;27.832;2022-09-03T01:55:14;7.22;;;3.63;;
9716;SDS011;4897;43.570;27.832;2022-09-03T01:57:51;6.35;;;4.00;;
9716;SDS011;4897;43.570;27.832;2022-09-03T02:00:23;6.30;;;3.83;;
9716;SDS011;4897;43.570;27.832;2022-09-03T02:02:53;7.78;;;4.15;;
9716;SDS011;4897;43.570;27.832;2022-09-03T02:05:20;4.75;;;3.60;;
9716;SDS011;4897;43.570;27.832;2022-09-03T02:07:50;7.82;;;4.07;;
9716;SDS011;4897;43.570;27.832;2022-09-03T02:10:22;6.90;;;4.00;;
9716;SDS011;4897;43.570;27.832;2022-09-03T02:12:55;6.97;;;3.97;;
9716;SDS011;4897;43.570;27.832;2022-09-03T02:15:28;8.25;;;4.32;;
9716;SDS011;4897;43.570;27.832;2022-09-03T02:17:57;8.88;;;4.05;;
9716;SDS011;4897;43.570;27.832;2022-09-03T02:20:27;7.90;;;4.43;;
9716;SDS011;4897;43.570;27.832;2022-09-03T02:22:55;7.20;;;3.83;;
9716;SDS011;4897;43.570;27.832;2022-09-03T02:25:27;7.05;;;4.00;;
9716;SDS011;4897;43.570;27.832;2022-09-03T02:27:57;7.80;;;4.60;;
9716;SDS011;4897;43.570;27.832;2022-09-03T02:30:25;6.50;;;4.60;;
9716;SDS011;4897;43.570;27.832;2022-09-03T02:32:53;7.03;;;4.05;;
9716;SDS011;4897;43.570;27.832;2022-09-03T02:35:20;7.45;;;4.35;;
9716;SDS011;4897;43.570;27.832;2022-09-03T02:37:47;10.25;;;4.63;;
9716;SDS011;4897;43.570;27.832;2022-09-03T02:40:14;5.57;;;4.32;;
9716;SDS011;4897;43.570;27.832;2022-09-03T02:42:41;7.32;;;4.70;;
9716;SDS011;4897;43.570;27.832;2022-09-03T02:45:12;8.82;;;4.50;;
9716;SDS011;4897;43.570;27.832;2022-09-03T02:47:49;7.43;;;4.18;;
9716;SDS011;4897;43.570;27.832;2022-09-03T02:50:23;8.73;;;5.00;;
9716;SDS011;4897;43.570;27.832;2022-09-03T02:52:51;6.32;;;4.63;;
9716;SDS011;4897;43.570;27.832;2022-09-03T02:55:18;9.50;;;5.15;;
9716;SDS011;4897;43.570;27.832;2022-09-03T02:57:45;8.43;;;5.15;;
9716;SDS011;4897;43.570;27.832;2022-09-03T03:00:12;7.82;;;4.72;;
9716;SDS011;4897;43.570;27.832;2022-09-03T03:02:39;13.43;;;5.45;;
9716;SDS011;4897;43.570;27.832;2022-09-03T03:05:07;8.70;;;5.03;;
9716;SDS011;4897;43.570;27.832;2022-09-03T03:07:42;5.95;;;4.82;;
9716;SDS011;4897;43.570;27.832;2022-09-03T03:10:12;7.97;;;5.15;;
9716;SDS011;4897;43.570;27.832;2022-09-03T03:12:39;10.40;;;5.30;;
9716;SDS011;4897;43.570;27.832;2022-09-03T03:15:06;7.95;;;5.70;;
9716;SDS011;4897;43.570;27.832;2022-09-03T03:17:33;8.80;;;5.38;;
9716;SDS011;4897;43.570;27.832;2022-09-03T03:20:00;10.63;;;5.20;;
9716;SDS011;4897;43.570;27.832;2022-09-03T03:22:27;8.45;;;4.95;;
9716;SDS011;4897;43.570;27.832;2022-09-03T03:24:56;9.30;;;5.53;;
9716;SDS011;4897;43.570;27.832;2022-09-03T03:27:23;9.43;;;5.38;;
9716;SDS011;4897;43.570;27.832;2022-09-03T03:29:50;7.43;;;5.40;;
9716;SDS011;4897;43.570;27.832;2022-09-03T03:32:17;8.70;;;5.60;;
9716;SDS011;4897;43.570;27.832;2022-09-03T03:34:43;9.48;;;6.00;;
9716;SDS011;4897;43.570;27.832;2022-09-03T03:37:10;8.38;;;5.93;;
9716;SDS011;4897;43.570;27.832;2022-09-03T03:39:37;9.20;;;6.00;;
9716;SDS011;4897;43.570;27.832;2022-09-03T03:42:05;10.65;;;5.97;;
9716;SDS011;4897;43.570;27.832;2022-09-03T03:44:32;15.15;;;6.05;;
9716;SDS011;4897;43.570;27.832;2022-09-03T03:46:59;9.75;;;5.78;;
9716;SDS011;4897;43.570;27.832;2022-09-03T03:49:26;7.95;;;5.78;;
9716;SDS011;4897;43.570;27.832;2022-09-03T03:51:53;10.27;;;6.15;;
9716;SDS011;4897;43.570;27.832;2022-09-03T03:54:19;10.10;;;6.78;;
9716;SDS011;4897;43.570;27.832;2022-09-03T03:56:47;12.55;;;6.63;;
9716;SDS011;4897;43.570;27.832;2022-09-03T03:59:15;10.02;;;6.13;;
9716;SDS011;4897;43.570;27.832;2022-09-03T04:01:42;9.13;;;6.05;;
9716;SDS011;4897;43.570;27.832;2022-09-03T04:04:08;8.38;;;6.65;;
9716;SDS011;4897;43.570;27.832;2022-09-03T04:06:38;12.98;;;6.15;;
9716;SDS011;4897;43.570;27.832;2022-09-03T04:09:05;12.68;;;6.85;;
9716;SDS011;4897;43.570;27.832;2022-09-03T04:11:35;8.55;;;6.90;;
9716;SDS011;4897;43.570;27.832;2022-09-03T04:14:04;12.18;;;6.78;;
9716;SDS011;4897;43.570;27.832;2022-09-03T04:16:38;9.43;;;6.53;;
9716;SDS011;4897;43.570;27.832;2022-09-03T04:19:05;12.48;;;6.95;;
9716;SDS011;4897;43.570;27.832;2022-09-03T04:21:32;16.73;;;6.95;;
9716;SDS011;4897;43.570;27.832;2022-09-03T04:23:59;9.57;;;7.03;;
9716;SDS011;4897;43.570;27.832;2022-09-03T04:26:26;13.45;;;7.13;;
9716;SDS011;4897;43.570;27.832;2022-09-03T04:28:55;10.98;;;7.15;;
9716;SDS011;4897;43.570;27.832;2022-09-03T04:31:23;12.95;;;7.40;;
9716;SDS011;4897;43.570;27.832;2022-09-03T04:33:53;11.35;;;7.00;;
9716;SDS011;4897;43.570;27.832;2022-09-03T04:36:21;10.50;;;7.53;;
9716;SDS011;4897;43.570;27.832;2022-09-03T04:38:50;17.42;;;7.70;;
9716;SDS011;4897;43.570;27.832;2022-09-03T04:41:19;19.73;;;8.25;;
9716;SDS011;4897;43.570;27.832;2022-09-03T04:43:49;15.98;;;8.07;;
9716;SDS011;4897;43.570;27.832;2022-09-03T04:46:17;14.43;;;7.60;;
9716;SDS011;4897;43.570;27.832;2022-09-03T04:48:46;15.25;;;8.20;;
9716;SDS011;4897;43.570;27.832;2022-09-03T04:51:15;14.70;;;7.55;;
9716;SDS011;4897;43.570;27.832;2022-09-03T04:53:44;12.60;;;7.78;;
9716;SDS011;4897;43.570;27.832;2022-09-03T04:56:13;17.08;;;7.90;;
9716;SDS011;4897;43.570;27.832;2022-09-03T04:58:41;16.52;;;7.60;;
9716;SDS011;4897;43.570;27.832;2022-09-03T05:01:14;12.63;;;8.00;;
9716;SDS011;4897;43.570;27.832;2022-09-03T05:03:45;12.48;;;7.85;;
9716;SDS011;4897;43.570;27.832;2022-09-03T05:06:13;13.73;;;7.70;;
9716;SDS011;4897;43.570;27.832;2022-09-03T05:08:41;15.50;;;8.40;;
9716;SDS011;4897;43.570;27.832;2022-09-03T05:11:08;14.10;;;8.50;;
9716;SDS011;4897;43.570;27.832;2022-09-03T05:13:35;13.85;;;7.88;;
9716;SDS011;4897;43.570;27.832;2022-09-03T05:16:03;15.80;;;7.55;;
9716;SDS011;4897;43.570;27.832;2022-09-03T05:18:31;15.07;;;7.95;;
9716;SDS011;4897;43.570;27.832;2022-09-03T05:21:00;15.85;;;8.13;;
9716;SDS011;4897;43.570;27.832;2022-09-03T05:23:29;9.27;;;7.43;;
9716;SDS011;4897;43.570;27.832;2022-09-03T05:25:57;14.40;;;8.23;;
9716;SDS011;4897;43.570;27.832;2022-09-03T05:28:26;16.80;;;7.72;;
9716;SDS011;4897;43.570;27.832;2022-09-03T05:30:58;14.40;;;7.85;;
9716;SDS011;4897;43.570;27.832;2022-09-03T05:33:25;15.43;;;8.18;;
9716;SDS011;4897;43.570;27.832;2022-09-03T05:35:53;14.32;;;8.00;;
9716;SDS011;4897;43.570;27.832;2022-09-03T05:38:20;13.20;;;7.72;;
9716;SDS011;4897;43.570;27.832;2022-09-03T05:40:48;18.00;;;8.00;;
9716;SDS011;4897;43.570;27.832;2022-09-03T05:43:15;13.25;;;8.00;;
9716;SDS011;4897;43.570;27.832;2022-09-03T05:45:42;14.60;;;8.02;;
9716;SDS011;4897;43.570;27.832;2022-09-03T05:48:09;14.85;;;8.20;;
9716;SDS011;4897;43.570;27.832;2022-09-03T05:50:36;13.43;;;8.02;;
9716;SDS011;4897;43.570;27.832;2022-09-03T05:53:02;12.68;;;8.05;;
9716;SDS011;4897;43.570;27.832;2022-09-03T05:55:29;14.95;;;7.80;;
9716;SDS011;4897;43.570;27.832;2022-09-03T05:57:58;10.68;;;7.82;;
9716;SDS011;4897;43.570;27.832;2022-09-03T06:00:25;13.15;;;7.65;;
9716;SDS011;4897;43.570;27.832;2022-09-03T06:02:52;12.32;;;7.90;;
9716;SDS011;4897;43.570;27.832;2022-09-03T06:05:19;15.40;;;8.50;;
9716;SDS011;4897;43.570;27.832;2022-09-03T06:07:46;11.88;;;8.38;;
9716;SDS011;4897;43.570;27.832;2022-09-03T06:10:13;13.63;;;8.20;;
9716;SDS011;4897;43.570;27.832;2022-09-03T06:12:42;10.55;;;7.65;;
9716;SDS011;4897;43.570;27.832;2022-09-03T06:15:15;15.45;;;8.23;;
9716;SDS011;4897;43.570;27.832;2022-09-03T06:17:42;14.02;;;8.20;;
9716;SDS011;4897;43.570;27.832;2022-09-03T06:20:09;15.38;;;8.70;;
9716;SDS011;4897;43.570;27.832;2022-09-03T06:22:36;16.98;;;9.13;;
9716;SDS011;4897;43.570;27.832;2022-09-03T06:25:03;13.70;;;9.30;;
9716;SDS011;4897;43.570;27.832;2022-09-03T06:27:31;18.17;;;9.65;;
9716;SDS011;4897;43.570;27.832;2022-09-03T06:29:58;15.88;;;9.48;;
9716;SDS011;4897;43.570;27.832;2022-09-03T06:32:29;14.75;;;10.07;;
9716;SDS011;4897;43.570;27.832;2022-09-03T06:34:56;19.65;;;10.38;;
9716;SDS011;4897;43.570;27.832;2022-09-03T06:37:23;13.75;;;10.23;;
9716;SDS011;4897;43.570;27.832;2022-09-03T06:39:50;15.20;;;10.18;;
9716;SDS011;4897;43.570;27.832;2022-09-03T06:42:17;16.55;;;11.27;;
9716;SDS011;4897;43.570;27.832;2022-09-03T06:44:44;19.33;;;10.52;;
9716;SDS011;4897;43.570;27.832;2022-09-03T06:47:10;18.48;;;10.65;;
9716;SDS011;4897;43.570;27.832;2022-09-03T06:49:39;15.73;;;10.82;;
9716;SDS011;4897;43.570;27.832;2022-09-03T06:52:05;16.48;;;11.43;;
9716;SDS011;4897;43.570;27.832;2022-09-03T06:54:32;16.63;;;11.38;;
9716;SDS011;4897;43.570;27.832;2022-09-03T06:56:59;16.40;;;10.32;;
9716;SDS011;4897;43.570;27.832;2022-09-03T06:59:26;16.20;;;10.55;;
9716;SDS011;4897;43.570;27.832;2022-09-03T07:01:53;19.13;;;11.77;;
9716;SDS011;4897;43.570;27.832;2022-09-03T07:04:20;19.35;;;11.90;;
9716;SDS011;4897;43.570;27.832;2022-09-03T07:06:50;20.73;;;12.63;;
9716;SDS011;4897;43.570;27.832;2022-09-03T07:09:17;28.17;;;17.90;;
9716;SDS011;4897;43.570;27.832;2022-09-03T07:11:44;45.42;;;27.67;;
9716;SDS011;4897;43.570;27.832;2022-09-03T07:14:12;39.70;;;26.13;;
9716;SDS011;4897;43.570;27.832;2022-09-03T07:16:40;24.13;;;16.95;;
9716;SDS011;4897;43.570;27.832;2022-09-03T07:19:07;41.33;;;27.75;;
9716;SDS011;4897;43.570;27.832;2022-09-03T07:21:38;30.20;;;20.38;;
9716;SDS011;4897;43.570;27.832;2022-09-03T07:24:08;43.10;;;27.58;;
9716;SDS011;4897;43.570;27.832;2022-09-03T07:26:35;30.00;;;17.85;;
9716;SDS011;4897;43.570;27.832;2022-09-03T07:29:04;38.20;;;24.00;;
9716;SDS011;4897;43.570;27.832;2022-09-03T07:31:32;34.75;;;19.50;;
9716;SDS011;4897;43.570;27.832;2022-09-03T07:34:04;31.30;;;16.75;;
9716;SDS011;4897;43.570;27.832;2022-09-03T07:36:34;23.98;;;14.32;;
9716;SDS011;4897;43.570;27.832;2022-09-03T07:39:03;20.25;;;12.02;;
9716;SDS011;4897;43.570;27.832;2022-09-03T07:41:31;18.98;;;10.40;;
9716;SDS011;4897;43.570;27.832;2022-09-03T07:43:59;19.10;;;10.95;;
9716;SDS011;4897;43.570;27.832;2022-09-03T07:46:30;31.90;;;19.80;;
9716;SDS011;4897;43.570;27.832;2022-09-03T07:48:59;47.47;;;28.48;;
9716;SDS011;4897;43.570;27.832;2022-09-03T07:51:28;53.70;;;33.63;;
9716;SDS011;4897;43.570;27.832;2022-09-03T07:53:56;41.13;;;23.48;;
9716;SDS011;4897;43.570;27.832;2022-09-03T07:56:24;38.80;;;23.10;;
9716;SDS011;4897;43.570;27.832;2022-09-03T07:58:53;30.27;;;16.45;;
9716;SDS011;4897;43.570;27.832;2022-09-03T08:01:20;25.10;;;12.88;;
9716;SDS011;4897;43.570;27.832;2022-09-03T08:03:49;18.27;;;12.00;;
9716;SDS011;4897;43.570;27.832;2022-09-03T08:06:18;16.60;;;10.40;;
9716;SDS011;4897;43.570;27.832;2022-09-03T08:09:06;19.67;;;10.70;;
9716;SDS011;4897;43.570;27.832;2022-09-03T08:11:50;23.40;;;11.98;;
9716;SDS011;4897;43.570;27.832;2022-09-03T08:14:28;19.13;;;10.10;;
9716;SDS011;4897;43.570;27.832;2022-09-03T08:16:55;17.52;;;10.02;;
9716;SDS011;4897;43.570;27.832;2022-09-03T08:19:24;13.68;;;9.15;;
9716;SDS011;4897;43.570;27.832;2022-09-03T08:21:51;13.13;;;9.13;;
9716;SDS011;4897;43.570;27.832;2022-09-03T08:24:18;11.55;;;8.82;;
9716;SDS011;4897;43.570;27.832;2022-09-03T08:26:48;17.63;;;9.48;;
9716;SDS011;4897;43.570;27.832;2022-09-03T08:29:15;16.50;;;8.15;;
9716;SDS011;4897;43.570;27.832;2022-09-03T08:31:44;10.63;;;7.03;;
9716;SDS011;4897;43.570;27.832;2022-09-03T08:34:10;11.02;;;6.97;;
9716;SDS011;4897;43.570;27.832;2022-09-03T08:36:38;15.15;;;7.72;;
9716;SDS011;4897;43.570;27.832;2022-09-03T08:39:07;8.50;;;6.88;;
9716;SDS011;4897;43.570;27.832;2022-09-03T08:41:39;14.32;;;7.70;;
9716;SDS011;4897;43.570;27.832;2022-09-03T08:44:21;9.23;;;6.50;;
9716;SDS011;4897;43.570;27.832;2022-09-03T08:46:54;12.50;;;7.68;;
9716;SDS011;4897;43.570;27.832;2022-09-03T08:49:25;9.07;;;6.40;;
9716;SDS011;4897;43.570;27.832;2022-09-03T08:51:57;9.60;;;6.68;;
9716;SDS011;4897;43.570;27.832;2022-09-03T08:54:28;10.45;;;6.85;;
9716;SDS011;4897;43.570;27.832;2022-09-03T08:56:58;11.88;;;5.40;;
9716;SDS011;4897;43.570;27.832;2022-09-03T08:59:27;7.55;;;4.57;;
9716;SDS011;4897;43.570;27.832;2022-09-03T09:01:58;8.63;;;5.57;;
9716;SDS011;4897;43.570;27.832;2022-09-03T09:04:34;5.40;;;3.90;;
9716;SDS011;4897;43.570;27.832;2022-09-03T09:07:13;9.25;;;4.43;;
9716;SDS011;4897;43.570;27.832;2022-09-03T09:09:48;6.10;;;3.97;;
9716;SDS011;4897;43.570;27.832;2022-09-03T09:12:24;7.65;;;3.65;;
9716;SDS011;4897;43.570;27.832;2022-09-03T09:15:07;4.75;;;3.65;;
9716;SDS011;4897;43.570;27.832;2022-09-03T09:17:53;6.63;;;3.17;;
9716;SDS011;4897;43.570;27.832;2022-09-03T09:20:31;6.28;;;3.03;;
9716;SDS011;4897;43.570;27.832;2022-09-03T09:23:06;5.20;;;3.90;;
9716;SDS011;4897;43.570;27.832;2022-09-03T09:25:36;3.30;;;2.90;;
9716;SDS011;4897;43.570;27.832;2022-09-03T09:28:14;3.63;;;2.70;;
9716;SDS011;4897;43.570;27.832;2022-09-03T09:30:43;3.00;;;2.70;;
9716;SDS011;4897;43.570;27.832;2022-09-03T09:33:13;2.90;;;2.28;;
9716;SDS011;4897;43.570;27.832;2022-09-03T09:35:40;5.82;;;2.25;;
9716;SDS011;4897;43.570;27.832;2022-09-03T09:38:07;3.47;;;2.25;;
9716;SDS011;4897;43.570;27.832;2022-09-03T09:40:36;2.25;;;2.00;;
9716;SDS011;4897;43.570;27.832;2022-09-03T09:43:08;2.08;;;1.60;;
9716;SDS011;4897;43.570;27.832;2022-09-03T09:45:37;1.73;;;1.63;;
9716;SDS011;4897;43.570;27.832;2022-09-03T09:48:12;2.35;;;1.50;;
9716;SDS011;4897;43.570;27.832;2022-09-03T09:50:44;3.03;;;2.10;;
9716;SDS011;4897;43.570;27.832;2022-09-03T09:53:11;4.13;;;1.92;;
9716;SDS011;4897;43.570;27.832;2022-09-03T09:55:49;2.95;;;2.03;;
9716;SDS011;4897;43.570;27.832;2022-09-03T09:58:18;2.00;;;1.73;;
9716;SDS011;4897;43.570;27.832;2022-09-03T10:00:57;8.60;;;5.68;;
9716;SDS011;4897;43.570;27.832;2022-09-03T10:03:32;1.70;;;1.60;;
9716;SDS011;4897;43.570;27.832;2022-09-03T10:06:01;2.60;;;1.80;;
9716;SDS011;4897;43.570;27.832;2022-09-03T10:08:45;2.83;;;1.95;;
9716;SDS011;4897;43.570;27.832;2022-09-03T10:11:11;2.30;;;1.80;;
9716;SDS011;4897;43.570;27.832;2022-09-03T10:13:40;4.90;;;1.85;;
9716;SDS011;4897;43.570;27.832;2022-09-03T10:16:17;5.15;;;2.55;;
9716;SDS011;4897;43.570;27.832;2022-09-03T10:18:50;3.45;;;2.13;;
9716;SDS011;4897;43.570;27.832;2022-09-03T10:21:26;2.00;;;1.80;;
9716;SDS011;4897;43.570;27.832;2022-09-03T10:23:58;2.15;;;1.90;;
9716;SDS011;4897;43.570;27.832;2022-09-03T10:26:31;2.03;;;1.85;;
9716;SDS011;4897;43.570;27.832;2022-09-03T10:28:58;2.00;;;1.80;;
9716;SDS011;4897;43.570;27.832;2022-09-03T10:31:30;2.85;;;1.98;;
9716;SDS011;4897;43.570;27.832;2022-09-03T10:34:13;1.95;;;1.75;;
9716;SDS011;4897;43.570;27.832;2022-09-03T10:36:49;2.83;;;1.95;;
9716;SDS011;4897;43.570;27.832;2022-09-03T10:39:24;1.92;;;1.75;;
9716;SDS011;4897;43.570;27.832;2022-09-03T10:42:07;3.65;;;1.85;;
9716;SDS011;4897;43.570;27.832;2022-09-03T10:44:49;2.75;;;1.90;;
9716;SDS011;4897;43.570;27.832;2022-09-03T10:47:31;2.60;;;2.08;;
9716;SDS011;4897;43.570;27.832;2022-09-03T10:50:14;4.55;;;2.15;;
9716;SDS011;4897;43.570;27.832;2022-09-03T10:52:53;5.97;;;1.60;;
9716;SDS011;4897;43.570;27.832;2022-09-03T10:55:34;3.13;;;2.15;;
9716;SDS011;4897;43.570;27.832;2022-09-03T10:58:16;4.20;;;2.30;;
9716;SDS011;4897;43.570;27.832;2022-09-03T11:00:57;3.58;;;2.28;;
9716;SDS011;4897;43.570;27.832;2022-09-03T11:03:36;3.70;;;1.85;;
9716;SDS011;4897;43.570;27.832;2022-09-03T11:06:11;5.07;;;2.05;;
9716;SDS011;4897;43.570;27.832;2022-09-03T11:08:45;2.80;;;1.90;;
9716;SDS011;4897;43.570;27.832;2022-09-03T11:11:19;2.33;;;2.13;;
9716;SDS011;4897;43.570;27.832;2022-09-03T11:13:51;4.32;;;2.60;;
9716;SDS011;4897;43.570;27.832;2022-09-03T11:16:24;4.30;;;3.17;;
9716;SDS011;4897;43.570;27.832;2022-09-03T11:19:00;3.55;;;2.70;;
9716;SDS011;4897;43.570;27.832;2022-09-03T11:21:31;3.63;;;2.80;;
9716;SDS011;4897;43.570;27.832;2022-09-03T11:24:04;2.60;;;2.20;;
9716;SDS011;4897;43.570;27.832;2022-09-03T11:26:36;2.40;;;2.20;;
9716;SDS011;4897;43.570;27.832;2022-09-03T11:29:06;3.47;;;2.58;;
9716;SDS011;4897;43.570;27.832;2022-09-03T11:31:44;2.58;;;2.13;;
9716;SDS011;4897;43.570;27.832;2022-09-03T11:34:25;2.22;;;1.95;;
9716;SDS011;4897;43.570;27.832;2022-09-03T11:37:04;2.00;;;1.60;;
9716;SDS011;4897;43.570;27.832;2022-09-03T11:39:39;4.30;;;1.50;;
9716;SDS011;4897;43.570;27.832;2022-09-03T11:42:08;2.75;;;1.90;;
9716;SDS011;4897;43.570;27.832;2022-09-03T11:44:38;2.70;;;1.65;;
9716;SDS011;4897;43.570;27.832;2022-09-03T11:47:13;1.83;;;1.40;;
9716;SDS011;4897;43.570;27.832;2022-09-03T11:49:45;3.33;;;1.58;;
9716;SDS011;4897;43.570;27.832;2022-09-03T11:52:23;1.98;;;1.58;;
9716;SDS011;4897;43.570;27.832;2022-09-03T11:54:51;4.10;;;1.85;;
9716;SDS011;4897;43.570;27.832;2022-09-03T11:57:22;5.40;;;1.77;;
9716;SDS011;4897;43.570;27.832;2022-09-03T11:59:52;3.03;;;2.38;;
9716;SDS011;4897;43.570;27.832;2022-09-03T12:02:24;5.43;;;2.40;;
9716;SDS011;4897;43.570;27.832;2022-09-03T12:07:56;4.22;;;3.53;;
9716;SDS011;4897;43.570;27.832;2022-09-03T12:10:45;11.77;;;3.90;;
9716;SDS011;4897;43.570;27.832;2022-09-03T12:13:33;5.57;;;4.00;;
9716;SDS011;4897;43.570;27.832;2022-09-03T12:16:21;5.45;;;4.30;;
9716;SDS011;4897;43.570;27.832;2022-09-03T12:18:59;5.20;;;4.22;;
9716;SDS011;4897;43.570;27.832;2022-09-03T12:21:36;5.00;;;3.97;;
9716;SDS011;4897;43.570;27.832;2022-09-03T12:24:05;5.90;;;4.40;;
9716;SDS011;4897;43.570;27.832;2022-09-03T12:26:37;4.20;;;3.70;;
9716;SDS011;4897;43.570;27.832;2022-09-03T12:29:06;5.47;;;3.72;;
9716;SDS011;4897;43.570;27.832;2022-09-03T12:31:45;6.68;;;3.70;;
9716;SDS011;4897;43.570;27.832;2022-09-03T12:34:16;6.97;;;3.42;;
9716;SDS011;4897;43.570;27.832;2022-09-03T12:36:45;6.45;;;2.67;;
9716;SDS011;4897;43.570;27.832;2022-09-03T12:39:15;3.50;;;3.00;;
9716;SDS011;4897;43.570;27.832;2022-09-03T12:44:30;4.28;;;2.97;;
9716;SDS011;4897;43.570;27.832;2022-09-03T12:47:05;5.15;;;2.78;;
9716;SDS011;4897;43.570;27.832;2022-09-03T12:49:36;4.13;;;2.45;;
9716;SDS011;4897;43.570;27.832;2022-09-03T12:52:10;3.50;;;2.58;;
9716;SDS011;4897;43.570;27.832;2022-09-03T12:54:45;7.15;;;2.63;;
9716;SDS011;4897;43.570;27.832;2022-09-03T12:57:18;2.63;;;2.08;;
9716;SDS011;4897;43.570;27.832;2022-09-03T12:59:48;2.95;;;2.30;;
9716;SDS011;4897;43.570;27.832;2022-09-03T13:02:22;2.78;;;2.28;;
9716;SDS011;4897;43.570;27.832;2022-09-03T13:04:53;2.33;;;2.13;;
9716;SDS011;4897;43.570;27.832;2022-09-03T13:07:22;2.92;;;2.38;;
9716;SDS011;4897;43.570;27.832;2022-09-03T13:09:59;2.85;;;2.40;;
9716;SDS011;4897;43.570;27.832;2022-09-03T13:12:31;4.13;;;2.40;;
9716;SDS011;4897;43.570;27.832;2022-09-03T13:15:07;3.95;;;2.20;;
9716;SDS011;4897;43.570;27.832;2022-09-03T13:17:46;2.80;;;2.33;;
9716;SDS011;4897;43.570;27.832;2022-09-03T13:20:38;5.32;;;2.50;;
9716;SDS011;4897;43.570;27.832;2022-09-03T13:23:27;7.38;;;2.97;;
9716;SDS011;4897;43.570;27.832;2022-09-03T13:26:05;3.50;;;2.90;;
9716;SDS011;4897;43.570;27.832;2022-09-03T13:28:48;3.95;;;2.88;;
9716;SDS011;4897;43.570;27.832;2022-09-03T13:31:30;5.05;;;3.42;;
9716;SDS011;4897;43.570;27.832;2022-09-03T13:34:01;4.72;;;3.20;;
9716;SDS011;4897;43.570;27.832;2022-09-03T13:36:35;6.32;;;3.60;;
9716;SDS011;4897;43.570;27.832;2022-09-03T13:39:27;4.60;;;3.25;;
9716;SDS011;4897;43.570;27.832;2022-09-03T13:42:04;5.85;;;3.25;;
9716;SDS011;4897;43.570;27.832;2022-09-03T13:44:41;4.88;;;3.63;;
9716;SDS011;4897;43.570;27.832;2022-09-03T13:47:15;9.00;;;3.58;;
9716;SDS011;4897;43.570;27.832;2022-09-03T13:49:53;4.22;;;3.42;;
9716;SDS011;4897;43.570;27.832;2022-09-03T13:52:48;4.97;;;3.13;;
9716;SDS011;4897;43.570;27.832;2022-09-03T13:55:22;3.92;;;3.50;;
9716;SDS011;4897;43.570;27.832;2022-09-03T13:57:56;6.38;;;3.20;;
9716;SDS011;4897;43.570;27.832;2022-09-03T14:00:28;4.72;;;3.83;;
9716;SDS011;4897;43.570;27.832;2022-09-03T14:03:03;10.43;;;3.90;;
9716;SDS011;4897;43.570;27.832;2022-09-03T14:05:40;6.43;;;4.20;;
9716;SDS011;4897;43.570;27.832;2022-09-03T14:08:19;5.38;;;4.38;;
9716;SDS011;4897;43.570;27.832;2022-09-03T14:10:58;7.07;;;4.43;;
9716;SDS011;4897;43.570;27.832;2022-09-03T14:13:37;6.88;;;4.75;;
9716;SDS011;4897;43.570;27.832;2022-09-03T14:16:15;11.40;;;5.38;;
9716;SDS011;4897;43.570;27.832;2022-09-03T14:18:51;6.25;;;5.20;;
9716;SDS011;4897;43.570;27.832;2022-09-03T14:21:22;8.00;;;5.40;;
9716;SDS011;4897;43.570;27.832;2022-09-03T14:23:54;9.88;;;5.28;;
9716;SDS011;4897;43.570;27.832;2022-09-03T14:26:30;9.20;;;5.93;;
9716;SDS011;4897;43.570;27.832;2022-09-03T14:29:00;7.95;;;5.68;;
9716;SDS011;4897;43.570;27.832;2022-09-03T14:31:44;8.20;;;5.57;;
9716;SDS011;4897;43.570;27.832;2022-09-03T14:34:24;7.47;;;5.75;;
9716;SDS011;4897;43.570;27.832;2022-09-03T14:37:04;7.68;;;5.60;;
9716;SDS011;4897;43.570;27.832;2022-09-03T14:39:43;5.72;;;5.07;;
9716;SDS011;4897;43.570;27.832;2022-09-03T14:42:26;14.13;;;5.78;;
9716;SDS011;4897;43.570;27.832;2022-09-03T14:45:11;6.88;;;5.60;;
9716;SDS011;4897;43.570;27.832;2022-09-03T14:47:49;6.45;;;5.65;;
9716;SDS011;4897;43.570;27.832;2022-09-03T14:50:31;6.82;;;6.00;;
9716;SDS011;4897;43.570;27.832;2022-09-03T14:56:25;9.95;;;5.28;;
9716;SDS011;4897;43.570;27.832;2022-09-03T14:59:19;6.45;;;4.88;;
9716;SDS011;4897;43.570;27.832;2022-09-03T15:02:06;11.05;;;5.53;;
9716;SDS011;4897;43.570;27.832;2022-09-03T15:05:02;7.22;;;5.57;;
9716;SDS011;4897;43.570;27.832;2022-09-03T15:07:40;8.68;;;6.13;;
9716;SDS011;4897;43.570;27.832;2022-09-03T15:10:15;6.85;;;5.28;;
9716;SDS011;4897;43.570;27.832;2022-09-03T15:12:51;8.10;;;5.03;;
9716;SDS011;4897;43.570;27.832;2022-09-03T15:15:20;9.02;;;5.55;;
9716;SDS011;4897;43.570;27.832;2022-09-03T15:18:01;8.07;;;6.22;;
9716;SDS011;4897;43.570;27.832;2022-09-03T15:20:42;6.82;;;5.30;;
9716;SDS011;4897;43.570;27.832;2022-09-03T15:26:11;12.05;;;6.03;;
9716;SDS011;4897;43.570;27.832;2022-09-03T15:28:52;11.10;;;5.95;;
9716;SDS011;4897;43.570;27.832;2022-09-03T15:31:35;6.80;;;5.40;;
9716;SDS011;4897;43.570;27.832;2022-09-03T15:34:15;9.15;;;5.55;;
9716;SDS011;4897;43.570;27.832;2022-09-03T15:37:00;10.50;;;5.35;;
9716;SDS011;4897;43.570;27.832;2022-09-03T15:39:41;6.72;;;4.72;;
9716;SDS011;4897;43.570;27.832;2022-09-03T15:42:13;4.90;;;4.40;;